Overview Statistics Trail Chart Weather Telemetry Raw packets
 

This is the latest recevied weather packets stored in our database for station/object SV9TNF-51. If no packets are shown the sender has not sent any weather packets the latest 10 day(s).

<< 63 64 65 66 67 68 69 >>
Time Temp. Humidity Pressure Rain* Wind** Luminosity Snow
1788231185 25.56° C 45% 1010.8 hPa 0 mm 1.79 m/s, 84° - -
1788230885 25.56° C 46% 1010.5 hPa 0 mm 0.45 m/s, 125° - -
1788230585 25.56° C 46% 1010.5 hPa 0 mm 0.89 m/s, 180° - -
1788230285 25.56° C 47% 1010.5 hPa 0 mm 0 m/s - -
1788229984 25.56° C 47% 1010.5 hPa 0 mm 0.45 m/s, 130° - -
1788229685 25.56° C 47% 1010.5 hPa 0 mm 0.45 m/s, 133° - -
1788229384 25.56° C 47% 1010.5 hPa 0 mm 1.34 m/s, 126° - -
1788229084 26.11° C 46% 1010.5 hPa 0 mm 2.68 m/s, 90° - -
1788228784 25.56° C 47% 1010.5 hPa 0 mm 3.58 m/s, 82° - -
1788228484 25.56° C 47% 1010.5 hPa 0 mm 0.89 m/s, 116° - -
1788228184 25.56° C 48% 1010.5 hPa 0 mm 1.79 m/s, 121° - -
1788227884 25.56° C 48% 1010.5 hPa 0 mm 1.79 m/s, 120° - -
1788227584 25.56° C 48% 1010.5 hPa 0 mm 0.89 m/s, 132° - -
1788227283 26.11° C 46% 1010.8 hPa 0 mm 1.79 m/s, 90° - -
1788226983 25.56° C 46% 1010.8 hPa 0 mm 0.89 m/s, 119° - -
1788226684 25.56° C 47% 1010.8 hPa 0 mm 0 m/s - -
1788226383 25.56° C 47% 1010.8 hPa 0 mm 1.34 m/s, 119° - -
1788226083 25.56° C 47% 1010.8 hPa 0 mm 0.45 m/s, 122° - -
1788225783 25.56° C 48% 1010.8 hPa 0 mm 1.34 m/s, 121° - -
1788225483 25.56° C 48% 1010.8 hPa 0 mm 1.34 m/s, 112° - -
1788225183 25.56° C 47% 1010.8 hPa 0 mm 1.79 m/s, 111° - -
1788224883 25.56° C 45% 1010.8 hPa 0 mm 0 m/s - -
1788224583 25.56° C 45% 1010.8 hPa 0 mm 0.89 m/s, 131° - -
1788224282 25.56° C 44% 1011.2 hPa 0 mm 1.34 m/s, 130° - -
1788223983 25.56° C 44% 1011.2 hPa 0 mm 0 m/s - -

* Rain latest hour (hover to see other rain measurements)
** Current wind speed in m/s (hover to see current wind gust speed)